Airfield :
LOGIN :

Register | Disclaimer

   EN    FR    IT 

 










Legend :    VFR   Marginal VFR   IFR   Intensive IFR   Very Intensive IFR
Visi :
Ceiling :
>= 8 km
>= 3000ft
5 to 8 km
1000 to 3000 ft
1500m to 5 km
500 to 1000 ft
800 to 1500m
200 to 500 ft
< 800m
< 200 ft
Symbols :   Thunderstorms  Fog  Heavy snow  Heavy precipitations  Wind > 20 kt
SIGMETs :     Misc.  Thunderstorms  Icing  Turbulence  Mountain Waves  Volcanic Ashes






- Airport Elevation : 157 ft
- IATA code : SFT


ESNS - Skellefteå

CURRENT METAR :
  • 192050Z AUTO 36005KT 320V040 6000 +RA VV041 17/17 Q1012

EXPIRED METARs :
  • 192020Z AUTO 36007KT 330V040 9999 -RA BKN005/// OVC007/// 17/17 Q1012 RERA
  • 191950Z AUTO 01008KT 340V070 8000 RA BKN004/// OVC010/// 17/17 Q1012
  • 191920Z AUTO 36007KT 330V040 4500 +RA BKN003/// OVC005/// 17/17 Q1011
  • 191850Z AUTO 36007KT 7000 RA OVC004/// 17/17 Q1011 RESHRA
  • 191820Z AUTO 36004KT 320V040 9999 +RA BKN004/// OVC006/// 17/17 Q1011
  • 191750Z 36005KT 340V040 9999 -RA OVC004 17/17 Q1011
  • 191720Z 36006KT 330V030 9999 -RA VCSH BKN005 17/17 Q1011
  • 191650Z 35005KT 320V030 9999 -RA SCT009 SCT019CB BKN046 17/17 Q1011
  • 191620Z 30005KT 270V350 9999 SHRA SCT015CB BKN070 18/18 Q1011

Expired Forecast.



MET'MAP, your aeronautical weather chart ! - Copyright ORBIFLY December 2007 - Disclaimer

ORBIFLY MET'MAP TEAM :

Programming & Development : Alexandra Zaïnal
Original concept : Baudouin d'Aumeries
Technical & hardware support : Manuel Goepfert
Assistance : Marc-Olivier Méhu




SOURCES & CREDITS :

   NOAA